Rodeo, California
Current Conditions -  °F | °C
As of 10:53 PM on Wednesday 17 Dec 2014 (Local Time) from KCCR Reporting Station
Overcast Overcast  
Wind Chill: 52°   Ceiling: 4100
Heat Index: 52°   Visibility: 10mi
Dew Point: 47°   Wind: 3mph
Humidity: 83%   Direction: 140°SE
Pressure: 30.09"   Gusts: NA
Location:  38.03°N, 122.26°W
Report Text: KCCR 180653Z 14003KT 10SM OVC041 11/08 A3009 RMK AO2 SLP173 T01110083
Loading
Personal Weather Stations






























Interactive Weather Map New forecast layout! Learn more

10-Day Weather Forecast

Advertisements
Track Severe Weather on mobile